Time;durP1;ratioP1;P1;durP2;ratioP2;P2;SDS_P1;SDS_P2;PMS_P1;PMS_P2;Temp;Humidity;BMP_temperature;BMP_pressure;BME280_temperature;BME280_humidity;BME280_pressure;Samples;Min_cycle;Max_cycle;Signal;HPM_P1;HPM_P2
2023/02/25 00:01:50;;;;;;;28.90;15.20;;;;;;;4.61;70.65;99997.91;107558;1254;97819;-62
2023/02/25 00:04:31;;;;;;;32.20;15.80;;;;;;;4.65;70.80;99997.88;107537;1257;111175;-58
2023/02/25 00:07:01;;;;;;;33.30;17.30;;;;;;;4.68;71.15;99999.36;107382;1253;108704;-58
2023/02/25 00:09:29;;;;;;;34.10;17.30;;;;;;;4.71;71.10;99991.86;107496;1254;108955;-59
2023/02/25 00:11:58;;;;;;;31.10;16.10;;;;;;;4.74;71.48;99985.42;107470;1254;97882;-60
2023/02/25 00:14:27;;;;;;;33.60;16.10;;;;;;;4.77;71.55;99974.89;107527;1254;97715;-62
2023/02/25 00:16:56;;;;;;;36.00;15.90;;;;;;;4.81;71.71;99971.73;107446;1254;111724;-65
2023/02/25 00:19:25;;;;;;;29.90;17.10;;;;;;;4.87;71.82;99963.84;107641;1254;109921;-59
2023/02/25 00:21:54;;;;;;;31.20;16.10;;;;;;;4.89;71.68;99961.34;107607;1253;107752;-60
2023/02/25 00:24:22;;;;;;;36.90;16.50;;;;;;;4.94;72.06;99963.28;107604;1253;97749;-59
2023/02/25 00:26:51;;;;;;;41.40;17.30;;;;;;;4.99;72.05;99957.55;107603;1256;97886;-59
2023/02/25 00:29:19;;;;;;;29.90;16.80;;;;;;;5.01;71.99;99959.00;107585;1254;112318;-60
2023/02/25 00:31:48;;;;;;;49.70;18.70;;;;;;;5.04;72.47;99954.89;107458;1254;110136;-60
2023/02/25 00:34:16;;;;;;;48.70;19.40;;;;;;;5.08;72.43;99948.68;107436;1257;108570;-60
2023/02/25 00:36:45;;;;;;;33.20;17.20;;;;;;;5.12;72.49;99944.48;107340;1254;97686;-60
2023/02/25 00:39:14;;;;;;;35.00;17.10;;;;;;;5.14;72.21;99937.53;107352;1254;97717;-59
2023/02/25 00:41:43;;;;;;;29.90;16.30;;;;;;;5.15;72.32;99935.19;107533;1254;111987;-60
2023/02/25 00:44:11;;;;;;;31.40;17.40;;;;;;;5.15;72.16;99930.35;107529;1253;108957;-60
2023/02/25 00:46:40;;;;;;;31.40;16.60;;;;;;;5.17;72.21;99929.16;107380;1254;108653;-59
2023/02/25 00:49:09;;;;;;;29.80;17.50;;;;;;;5.19;72.17;99923.27;107531;1254;97801;-59
2023/02/25 00:51:40;;;;;;;39.10;18.70;;;;;;;5.21;72.19;99919.61;107515;1254;98336;-60
2023/02/25 00:54:08;;;;;;;37.60;17.90;;;;;;;5.22;72.25;99918.27;107527;1258;111207;-58
2023/02/25 00:56:37;;;;;;;31.20;17.60;;;;;;;5.24;72.13;99912.95;107401;1255;110302;-59
2023/02/25 00:59:05;;;;;;;41.00;18.70;;;;;;;5.26;72.39;99918.83;107425;1258;108029;-59
2023/02/25 01:01:36;;;;;;;41.30;19.00;;;;;;;5.26;72.33;99912.42;107400;1257;97825;-60
2023/02/25 01:04:06;;;;;;;29.60;17.00;;;;;;;5.23;72.21;99912.81;107435;1257;97835;-60
2023/02/25 01:06:36;;;;;;;38.80;17.20;;;;;;;5.20;72.29;99917.67;107452;1254;112410;-60
2023/02/25 01:09:06;;;;;;;38.50;17.90;;;;;;;5.20;72.11;99915.02;107437;1257;109314;-60
2023/02/25 01:11:35;;;;;;;32.90;16.80;;;;;;;5.20;72.09;99921.15;107427;1255;108756;-60
2023/02/25 01:14:06;;;;;;;30.80;16.50;;;;;;;5.17;72.01;99923.41;107436;1258;97947;-61
2023/02/25 01:16:36;;;;;;;28.30;15.10;;;;;;;5.14;71.96;99920.71;107452;1255;97788;-60
2023/02/25 01:19:08;;;;;;;34.60;15.90;;;;;;;5.08;71.99;99920.64;107428;1255;112170;-60
2023/02/25 01:21:40;;;;;;;29.40;17.40;;;;;;;5.04;72.13;99919.52;107421;1254;110230;-60
2023/02/25 01:24:15;;;;;;;33.40;16.90;;;;;;;5.03;72.09;99910.33;107403;1258;108154;-61
2023/02/25 01:26:45;;;;;;;33.80;17.50;;;;;;;5.01;71.96;99908.90;107284;1257;97833;-59
2023/02/25 01:29:21;;;;;;;32.50;17.70;;;;;;;4.97;72.10;99912.71;107368;1254;97735;-59
2023/02/25 01:31:54;;;;;;;31.90;16.10;;;;;;;4.96;72.12;99910.56;107443;1254;111489;-60
2023/02/25 01:34:23;;;;;;;;;;;;;;;4.93;71.85;99906.31;107447;1257;107298;-60
2023/02/25 01:36:52;;;;;;;34.70;17.80;;;;;;;4.91;72.01;99903.65;107406;1255;108569;-60
2023/02/25 01:39:23;;;;;;;32.50;17.40;;;;;;;4.90;72.02;99903.16;107275;1255;97885;-60
2023/02/25 01:41:57;;;;;;;36.70;17.00;;;;;;;4.89;71.94;99900.60;107453;1258;97711;-59
2023/02/25 01:44:31;;;;;;;32.00;16.70;;;;;;;4.87;71.95;99897.55;107462;1257;111941;-60
2023/02/25 01:47:00;;;;;;;30.90;16.90;;;;;;;4.83;71.69;99890.00;107446;1254;110151;-59
2023/02/25 01:49:53;;;;;;;28.00;16.00;;;;;;;4.83;71.89;99882.27;107475;1254;108316;-59
2023/02/25 01:52:24;;;;;;;34.70;16.70;;;;;;;4.83;71.93;99880.48;107526;1254;97982;-59
2023/02/25 01:54:56;;;;;;;36.60;18.90;;;;;;;4.80;71.77;99874.84;107348;1253;97697;-60
2023/02/25 01:57:25;;;;;;;34.40;18.30;;;;;;;4.81;72.06;99871.20;107471;1253;112107;-59
2023/02/25 01:59:54;;;;;;;50.10;19.60;;;;;;;4.80;71.93;99865.98;107449;1254;109775;-59
2023/02/25 02:02:27;;;;;;;38.70;18.90;;;;;;;4.78;72.09;99854.77;107475;1254;106859;-60
2023/02/25 02:04:56;;;;;;;34.90;19.30;;;;;;;4.79;72.17;99854.62;107598;1254;97816;-60
2023/02/25 02:07:24;;;;;;;39.40;18.10;;;;;;;4.83;72.24;99855.76;107370;1254;98379;-59
2023/02/25 02:09:55;;;;;;;48.90;19.20;;;;;;;4.84;72.50;99861.68;107573;1254;112124;-60
2023/02/25 02:12:34;;;;;;;36.20;19.10;;;;;;;4.85;72.25;99864.30;107515;1254;110354;-60
2023/02/25 02:15:10;;;;;;;44.90;19.20;;;;;;;4.86;72.41;99859.76;107459;1253;107416;-59
2023/02/25 02:17:43;;;;;;;34.30;18.30;;;;;;;4.88;72.36;99856.99;107470;1253;97832;-60
2023/02/25 02:20:23;;;;;;;40.90;19.80;;;;;;;4.90;72.33;99849.86;107574;1254;97796;-58
2023/02/25 02:23:26;;;;;;;38.20;18.80;;;;;;;4.89;72.25;99849.39;107584;1254;112201;-60
2023/02/25 02:26:03;;;;;;;30.20;17.70;;;;;;;4.87;72.23;99846.72;107463;1253;110721;-59
2023/02/25 02:29:01;;;;;;;38.80;18.10;;;;;;;4.81;71.86;99843.30;107540;1256;107979;-58
2023/02/25 02:31:54;;;;;;;35.30;18.20;;;;;;;4.78;72.05;99844.08;107572;1252;97922;-59
2023/02/25 02:34:48;;;;;;;32.00;17.50;;;;;;;4.79;72.12;99843.47;107605;1254;97802;-59
2023/02/25 02:37:26;;;;;;;44.30;18.60;;;;;;;4.81;72.41;99837.23;107559;1254;111815;-61
2023/02/25 02:40:14;;;;;;;35.80;18.10;;;;;;;4.83;72.17;99836.21;107520;1253;109164;-59
2023/02/25 02:43:05;;;;;;;37.80;19.20;;;;;;;4.85;72.41;99832.64;107393;1254;108801;-58
2023/02/25 02:45:55;;;;;;;38.20;17.80;;;;;;;4.88;72.25;99828.04;107396;1254;97855;-59
2023/02/25 02:48:38;;;;;;;39.10;19.60;;;;;;;4.88;72.17;99831.91;107571;1253;98341;-59
2023/02/25 02:51:13;;;;;;;35.10;18.20;;;;;;;4.88;72.29;99835.29;107608;1254;112064;-62
2023/02/25 02:53:51;;;;;;;35.40;19.10;;;;;;;4.91;72.55;99835.95;107507;1252;109684;-59
2023/02/25 02:56:23;;;;;;;30.70;18.10;;;;;;;4.95;72.44;99834.37;107477;1254;108235;-60
2023/02/25 02:58:58;;;;;;;37.50;19.00;;;;;;;4.98;72.48;99827.89;107497;1253;97833;-59
2023/02/25 03:01:38;;;;;;;39.40;20.40;;;;;;;4.99;72.49;99828.50;107581;1253;97911;-60
2023/02/25 03:04:13;;;;;;;38.60;19.30;;;;;;;5.02;72.31;99826.15;107392;1254;111388;-61
2023/02/25 03:06:46;;;;;;;35.50;18.20;;;;;;;5.03;72.38;99829.88;107576;1253;109225;-60
2023/02/25 03:09:46;;;;;;;35.80;19.50;;;;;;;5.04;72.40;99821.64;107445;1254;108590;-60
2023/02/25 03:12:15;;;;;;;42.40;19.60;;;;;;;4.97;72.27;99816.09;107430;1254;97899;-59
2023/02/25 03:14:43;;;;;;;34.60;19.40;;;;;;;4.90;72.39;99818.79;107491;1253;97716;-61
2023/02/25 03:17:26;;;;;;;39.50;20.80;;;;;;;4.86;72.52;99813.77;107603;1254;111875;-60
2023/02/25 03:20:27;;;;;;;32.50;19.10;;;;;;;4.88;72.78;99807.21;107592;1256;109000;-58
2023/02/25 03:23:03;;;;;;;36.00;19.30;;;;;;;4.93;73.04;99807.58;107583;1254;107680;-60
2023/02/25 03:25:46;;;;;;;40.30;19.10;;;;;;;4.96;72.88;99802.52;107559;1254;97707;-59
2023/02/25 03:28:31;;;;;;;37.90;19.10;;;;;;;4.96;72.96;99801.09;107624;1254;97803;-60
2023/02/25 03:31:20;;;;;;;39.90;19.10;;;;;;;4.93;73.09;99789.56;107502;1254;111981;-60
2023/02/25 03:34:14;;;;;;;43.60;20.10;;;;;;;4.86;73.04;99781.93;107500;1254;108992;-60
2023/02/25 03:36:58;;;;;;;36.60;19.90;;;;;;;4.82;72.91;99773.78;107480;1258;107715;-59
2023/02/25 03:39:31;;;;;;;40.30;20.30;;;;;;;4.77;73.02;99766.15;107498;1253;98256;-61
2023/02/25 03:42:03;;;;;;;39.40;20.40;;;;;;;4.77;73.42;99764.41;107555;1254;97973;-60
2023/02/25 03:44:38;;;;;;;41.10;19.60;;;;;;;4.73;73.32;99767.77;107502;1254;112452;-60
2023/02/25 03:47:09;;;;;;;43.50;18.10;;;;;;;4.66;73.57;99771.70;107509;1255;110158;-60
2023/02/25 03:49:47;;;;;;;;;;;;;;;4.64;74.12;99761.84;107522;1256;109484;-60
2023/02/25 03:52:19;;;;;;;39.80;20.10;;;;;;;4.64;73.77;99756.89;107609;1254;97821;-61
2023/02/25 03:54:55;;;;;;;33.30;18.20;;;;;;;4.68;74.06;99750.58;107499;1254;97711;-60
2023/02/25 03:57:33;;;;;;;40.30;19.70;;;;;;;4.67;73.90;99756.44;107602;1254;112101;-59
2023/02/25 04:00:14;;;;;;;36.00;18.80;;;;;;;4.67;74.05;99758.23;107584;1254;109198;-59
2023/02/25 04:02:45;;;;;;;35.40;18.80;;;;;;;4.69;74.08;99757.71;107558;1254;108273;-60
2023/02/25 04:05:16;;;;;;;37.40;20.00;;;;;;;4.72;74.32;99754.33;107553;1256;97824;-59
2023/02/25 04:07:45;;;;;;;30.20;17.20;;;;;;;4.74;74.65;99751.88;107510;1259;99496;-60
2023/02/25 04:10:16;;;;;;;33.90;18.00;;;;;;;4.75;74.74;99743.42;107445;1253;113140;-59
2023/02/25 04:12:46;;;;;;;35.00;19.80;;;;;;;4.75;74.38;99737.52;107598;1254;109255;-59
2023/02/25 04:15:14;;;;;;;35.40;19.80;;;;;;;4.77;74.29;99730.48;107480;1258;108923;-60
2023/02/25 04:17:44;;;;;;;36.10;19.70;;;;;;;4.80;74.68;99719.54;107456;1254;97810;-58
2023/02/25 04:20:15;;;;;;;40.90;19.60;;;;;;;4.82;74.55;99715.80;107512;1254;98530;-60
2023/02/25 04:22:43;;;;;;;36.00;19.40;;;;;;;4.81;74.50;99728.73;107491;1254;112316;-59
2023/02/25 04:25:12;;;;;;;35.60;20.40;;;;;;;4.73;74.45;99723.02;107557;1254;111160;-58
2023/02/25 04:27:40;;;;;;;36.20;19.80;;;;;;;4.66;74.28;99720.52;107454;1254;108650;-59
2023/02/25 04:30:09;;;;;;;39.10;20.10;;;;;;;4.57;74.22;99715.02;107588;1254;97828;-60
2023/02/25 04:32:37;;;;;;;42.40;19.90;;;;;;;4.55;74.56;99712.35;107604;1254;97739;-61
2023/02/25 04:35:10;;;;;;;40.70;20.60;;;;;;;4.56;74.64;99711.75;107606;1255;112299;-58
2023/02/25 04:37:40;;;;;;;37.20;21.30;;;;;;;4.54;74.35;99712.03;107602;1254;110841;-59
2023/02/25 04:40:14;;;;;;;44.80;20.60;;;;;;;4.56;74.54;99710.87;107565;1254;107683;-59
2023/02/25 04:42:42;;;;;;;35.50;20.10;;;;;;;4.57;74.64;99706.88;107600;1254;97837;-59
2023/02/25 04:45:12;;;;;;;43.70;22.10;;;;;;;4.56;74.57;99702.70;107610;1253;97807;-60
2023/02/25 04:47:41;;;;;;;41.30;21.60;;;;;;;4.57;74.64;99701.91;107587;1256;111266;-59
2023/02/25 04:50:10;;;;;;;38.00;19.70;;;;;;;4.59;74.66;99696.92;107616;1254;110004;-59
2023/02/25 04:52:38;;;;;;;38.80;19.80;;;;;;;4.59;74.65;99695.17;107570;1254;108792;-61
2023/02/25 04:55:08;;;;;;;38.50;19.10;;;;;;;4.62;74.82;99697.08;107571;1254;97826;-59
2023/02/25 04:57:41;;;;;;;41.10;20.30;;;;;;;4.63;74.51;99685.09;107573;1254;98251;-59
2023/02/25 05:00:22;;;;;;;38.80;20.90;;;;;;;4.60;74.33;99673.21;107476;1254;112253;-59
2023/02/25 05:02:51;;;;;;;40.80;20.50;;;;;;;4.58;74.31;99662.95;107596;1254;109894;-59
2023/02/25 05:05:20;;;;;;;34.10;20.40;;;;;;;4.59;74.58;99663.05;107529;1254;108189;-62
2023/02/25 05:07:48;;;;;;;46.80;20.90;;;;;;;4.60;74.79;99657.62;107568;1257;97839;-60
2023/02/25 05:10:17;;;;;;;32.10;18.30;;;;;;;4.58;74.44;99650.65;107572;1256;97915;-59
2023/02/25 05:12:45;;;;;;;38.50;19.00;;;;;;;4.57;74.60;99645.28;107577;1256;111966;-60
2023/02/25 05:15:15;;;;;;;35.90;19.30;;;;;;;4.54;74.48;99639.95;107568;1254;109808;-59
2023/02/25 05:17:43;;;;;;;35.60;19.10;;;;;;;4.53;74.36;99634.92;107549;1254;108245;-58
2023/02/25 05:20:11;;;;;;;40.80;20.00;;;;;;;4.54;74.31;99626.85;107559;1256;97841;-59
2023/02/25 05:22:41;;;;;;;34.60;18.80;;;;;;;4.54;74.36;99626.79;107609;1255;97688;-59
2023/02/25 05:25:10;;;;;;;40.70;19.70;;;;;;;4.54;74.13;99628.80;107560;1254;110707;-59
2023/02/25 05:27:38;;;;;;;41.70;21.30;;;;;;;4.51;74.22;99638.23;107553;1254;109580;-60
2023/02/25 05:30:08;;;;;;;33.90;19.80;;;;;;;4.53;74.35;99640.78;107578;1256;108104;-60
2023/02/25 05:32:37;;;;;;;36.40;19.70;;;;;;;4.57;74.41;99631.77;107567;1256;97851;-59
2023/02/25 05:35:08;;;;;;;39.00;21.20;;;;;;;4.57;74.43;99624.82;107587;1254;97726;-60
2023/02/25 05:37:37;;;;;;;39.70;21.10;;;;;;;4.63;74.50;99615.59;107593;1255;111253;-58
2023/02/25 05:40:08;;;;;;;40.00;20.40;;;;;;;4.69;74.62;99615.27;107566;1255;109266;-60
2023/02/25 05:42:36;;;;;;;43.40;22.40;;;;;;;4.74;74.72;99620.39;107551;1254;108216;-60
2023/02/25 05:45:10;;;;;;;39.40;19.60;;;;;;;4.81;74.59;99617.19;107573;1255;97895;-59
2023/02/25 05:47:38;;;;;;;36.40;21.00;;;;;;;4.82;74.21;99611.55;107576;1254;97771;-60
2023/02/25 05:50:08;;;;;;;34.30;20.60;;;;;;;4.85;74.22;99611.14;107595;1254;111899;-60
2023/02/25 05:52:36;;;;;;;38.50;21.20;;;;;;;4.90;74.25;99611.95;107576;1254;108981;-60
2023/02/25 05:55:08;;;;;;;34.10;19.70;;;;;;;4.97;74.08;99607.67;107399;1255;108604;-60
2023/02/25 05:57:37;;;;;;;34.50;18.90;;;;;;;5.01;74.04;99605.57;107527;1254;97778;-60
2023/02/25 06:00:08;;;;;;;34.90;20.80;;;;;;;5.06;74.09;99609.36;107590;1253;97851;-59
2023/02/25 06:02:40;;;;;;;35.60;20.30;;;;;;;5.11;74.22;99601.35;107572;1256;111438;-59
2023/02/25 06:05:09;;;;;;;39.50;19.70;;;;;;;5.14;74.11;99601.65;107555;1254;110368;-59
2023/02/25 06:07:37;;;;;;;31.50;19.20;;;;;;;5.15;73.92;99607.95;107604;1254;108646;-61
2023/02/25 06:10:06;;;;;;;38.60;19.90;;;;;;;5.19;74.25;99602.60;107554;1254;97927;-60
2023/02/25 06:12:37;;;;;;;33.50;19.90;;;;;;;5.23;74.18;99599.47;107387;1255;98379;-59
2023/02/25 06:15:06;;;;;;;40.40;21.10;;;;;;;5.27;74.10;99599.16;107596;1254;110890;-59
2023/02/25 06:17:35;;;;;;;37.80;20.00;;;;;;;5.35;74.50;99604.14;107523;1254;109194;-59
2023/02/25 06:20:05;;;;;;;36.30;18.40;;;;;;;5.42;74.39;99600.67;107561;1256;108740;-61
2023/02/25 06:22:33;;;;;;;30.20;17.30;;;;;;;5.47;74.40;99597.61;107571;1255;97726;-60
2023/02/25 06:25:02;;;;;;;39.60;20.70;;;;;;;5.53;74.38;99600.80;107573;1256;98350;-60
2023/02/25 06:27:30;;;;;;;33.60;18.00;;;;;;;5.64;74.42;99587.45;107593;1254;111436;-60
2023/02/25 06:30:01;;;;;;;37.20;19.10;;;;;;;5.75;74.68;99587.77;107597;1257;109303;-59
2023/02/25 06:32:29;;;;;;;39.80;20.20;;;;;;;5.83;74.59;99583.27;107593;1256;109282;-62
2023/02/25 06:34:58;;;;;;;34.10;19.10;;;;;;;5.91;74.58;99585.61;107563;1254;97855;-62
2023/02/25 06:37:27;;;;;;;45.20;20.20;;;;;;;6.03;74.65;99581.38;107566;1256;98359;-60
2023/02/25 06:39:55;;;;;;;37.90;20.20;;;;;;;6.15;74.66;99575.88;107579;1256;112385;-61
2023/02/25 06:42:24;;;;;;;40.40;22.50;;;;;;;6.25;74.53;99579.07;107586;1254;110433;-61
2023/02/25 06:44:52;;;;;;;33.70;19.60;;;;;;;6.35;74.28;99570.73;107548;1254;108012;-61
2023/02/25 06:47:22;;;;;;;45.20;20.60;;;;;;;6.44;74.20;99563.85;107455;1253;98280;-59
2023/02/25 06:49:50;;;;;;;40.80;19.80;;;;;;;6.53;74.05;99558.98;107588;1254;98402;-59
2023/02/25 06:52:19;;;;;;;40.50;20.20;;;;;;;6.63;74.02;99556.28;107598;1257;111548;-61
2023/02/25 06:54:47;;;;;;;51.00;22.80;;;;;;;6.73;73.81;99550.39;107429;1254;109039;-60
2023/02/25 06:57:16;;;;;;;49.20;21.30;;;;;;;6.83;73.72;99548.87;107584;1254;107593;-60
2023/02/25 06:59:44;;;;;;;52.50;21.40;;;;;;;6.94;73.52;99538.32;107574;1254;97909;-59
2023/02/25 07:02:13;;;;;;;45.70;20.60;;;;;;;7.01;73.39;99549.34;107597;1256;97895;-59
2023/02/25 07:04:41;;;;;;;35.00;19.80;;;;;;;7.11;73.16;99551.72;107575;1257;112045;-61
2023/02/25 07:07:11;;;;;;;42.10;20.70;;;;;;;7.19;73.11;99552.21;107585;1254;109962;-59
2023/02/25 07:09:39;;;;;;;51.90;22.80;;;;;;;7.28;72.96;99538.16;107608;1253;108318;-59
2023/02/25 07:12:08;;;;;;;50.50;21.60;;;;;;;7.37;72.82;99533.59;107560;1256;97821;-60
2023/02/25 07:14:36;;;;;;;51.00;22.00;;;;;;;7.46;72.80;99524.67;107588;1254;97828;-60
2023/02/25 07:17:05;;;;;;;44.50;22.90;;;;;;;7.56;72.51;99512.70;107618;1254;113255;-59
2023/02/25 07:19:33;;;;;;;52.30;26.20;;;;;;;7.64;72.45;99502.45;107602;1256;109736;-59
2023/02/25 07:22:04;;;;;;;52.50;23.90;;;;;;;7.75;72.22;99491.17;107596;1255;108439;-62
2023/02/25 07:24:32;;;;;;;54.40;26.10;;;;;;;7.88;72.18;99478.77;107605;1255;97847;-61
2023/02/25 07:27:00;;;;;;;37.20;18.00;;;;;;;8.02;71.86;99468.27;107607;1257;97828;-60
2023/02/25 07:29:29;;;;;;;29.90;15.20;;;;;;;8.16;71.10;99456.68;107575;1254;111966;-60
2023/02/25 07:31:58;;;;;;;37.80;14.60;;;;;;;8.33;70.03;99458.88;107591;1257;109688;-60
2023/02/25 07:34:27;;;;;;;40.10;14.70;;;;;;;8.52;69.34;99458.83;107567;1254;107219;-59
2023/02/25 07:36:55;;;;;;;43.90;15.70;;;;;;;8.69;68.80;99452.66;107564;1253;97819;-60
2023/02/25 07:39:24;;;;;;;27.80;12.50;;;;;;;8.87;67.38;99455.84;107406;1254;97765;-61
2023/02/25 07:41:53;;;;;;;54.80;15.20;;;;;;;9.03;67.01;99456.38;107612;1254;110267;-61
2023/02/25 07:44:21;;;;;;;38.20;13.40;;;;;;;9.19;66.68;99447.23;107569;1255;108822;-60
2023/02/25 07:46:50;;;;;;;38.70;13.30;;;;;;;9.34;66.64;99441.91;107526;1254;108777;-61
2023/02/25 07:49:18;;;;;;;30.30;12.40;;;;;;;9.50;66.72;99429.32;107571;1256;97701;-59
2023/02/25 07:51:46;;;;;;;32.50;12.30;;;;;;;9.68;66.47;99428.38;107588;1254;98522;-61
2023/02/25 07:54:16;;;;;;;33.20;12.10;;;;;;;9.85;65.58;99425.09;107591;1255;111773;-61
2023/02/25 07:56:45;;;;;;;34.70;11.50;;;;;;;10.01;63.12;99414.60;107513;1254;109667;-59
2023/02/25 07:59:13;;;;;;;29.90;11.10;;;;;;;10.16;61.73;99408.20;107465;1254;107448;-60
2023/02/25 08:01:43;;;;;;;27.70;11.00;;;;;;;10.28;63.08;99398.77;107552;1254;97816;-59
2023/02/25 08:04:11;;;;;;;25.10;10.80;;;;;;;10.43;61.96;99390.92;107583;1254;97710;-60
2023/02/25 08:06:40;;;;;;;27.10;10.90;;;;;;;10.56;61.40;99390.55;107528;1254;112754;-59
2023/02/25 08:09:11;;;;;;;31.40;12.30;;;;;;;10.70;60.66;99381.36;107518;1253;109557;-58
2023/02/25 08:11:40;;;;;;;24.70;9.90;;;;;;;10.86;61.13;99384.95;107446;1255;108335;-59
2023/02/25 08:14:10;;;;;;;30.10;9.40;;;;;;;11.04;60.83;99391.85;107521;1257;97837;-60
2023/02/25 08:16:38;;;;;;;33.20;9.80;;;;;;;11.22;59.03;99381.80;107501;1254;97736;-60
2023/02/25 08:19:07;;;;;;;32.60;9.40;;;;;;;11.37;58.55;99374.69;107506;1253;111190;-60
2023/02/25 08:21:36;;;;;;;31.50;9.30;;;;;;;11.52;57.56;99371.80;107512;1257;108131;-60
2023/02/25 08:24:06;;;;;;;26.50;10.60;;;;;;;11.65;57.20;99364.15;107503;1254;107887;-59
2023/02/25 08:26:34;;;;;;;22.10;9.20;;;;;;;11.82;55.71;99356.69;107568;1254;97713;-60
2023/02/25 08:29:03;;;;;;;34.30;10.00;;;;;;;11.94;54.62;99350.45;107545;1254;97828;-59
2023/02/25 08:31:32;;;;;;;33.80;8.40;;;;;;;12.11;53.49;99346.05;107559;1254;112521;-60
2023/02/25 08:34:01;;;;;;;29.10;7.90;;;;;;;12.32;50.26;99354.42;107550;1254;109063;-60
2023/02/25 08:36:30;;;;;;;30.70;7.50;;;;;;;12.48;50.19;99356.30;107523;1255;107491;-59
2023/02/25 08:39:00;;;;;;;19.50;6.80;;;;;;;12.68;48.30;99360.02;107519;1256;97845;-59
2023/02/25 08:41:29;;;;;;;18.80;7.00;;;;;;;12.82;47.82;99352.08;107537;1256;98937;-60
2023/02/25 08:44:00;;;;;;;22.40;8.20;;;;;;;12.94;48.33;99352.11;107520;1257;111217;-59
2023/02/25 08:46:31;;;;;;;24.20;7.80;;;;;;;13.05;47.04;99342.80;107560;1254;109833;-61
2023/02/25 08:49:00;;;;;;;29.50;7.60;;;;;;;13.16;46.95;99334.27;107475;1254;108727;-60
2023/02/25 08:51:33;;;;;;;33.70;7.20;;;;;;;13.26;46.50;99341.20;107491;1254;97822;-60
2023/02/25 08:54:07;;;;;;;32.00;7.90;;;;;;;13.38;45.38;99336.32;107497;1257;97832;-60
2023/02/25 08:56:42;;;;;;;33.30;8.00;;;;;;;13.47;45.23;99333.77;107499;1254;112225;-60
2023/02/25 08:59:14;;;;;;;32.30;9.70;;;;;;;13.57;44.41;99334.77;107511;1254;110273;-62
2023/02/25 09:01:43;;;;;;;17.70;7.00;;;;;;;13.63;44.64;99328.55;107508;1257;108109;-60
2023/02/25 09:04:15;;;;;;;20.90;8.80;;;;;;;13.69;44.30;99322.63;107517;1253;97864;-60
2023/02/25 09:06:47;;;;;;;36.10;8.30;;;;;;;13.70;44.90;99316.02;107527;1257;98382;-60
2023/02/25 09:09:17;;;;;;;22.70;7.70;;;;;;;13.81;45.78;99313.73;107490;1254;112277;-59
2023/02/25 09:11:47;;;;;;;41.40;7.60;;;;;;;13.93;45.75;99311.63;107459;1254;110013;-60
2023/02/25 09:14:17;;;;;;;26.10;7.40;;;;;;;14.06;44.80;99310.08;107507;1254;108760;-59
2023/02/25 09:16:45;;;;;;;36.40;7.40;;;;;;;14.16;44.21;99313.81;107624;1254;97799;-59
2023/02/25 09:19:16;;;;;;;26.20;7.10;;;;;;;14.24;43.93;99308.55;107562;1254;98413;-59
2023/02/25 09:21:49;;;;;;;23.80;7.40;;;;;;;14.32;43.09;99312.40;107582;1254;111709;-59
2023/02/25 09:24:17;;;;;;;31.60;7.10;;;;;;;14.38;43.24;99312.45;107619;1254;110035;-60
2023/02/25 09:26:46;;;;;;;32.00;8.30;;;;;;;14.47;42.50;99305.40;107580;1254;108101;-61
2023/02/25 09:29:15;;;;;;;30.30;7.90;;;;;;;14.53;43.70;99300.15;107460;1254;97812;-60
2023/02/25 09:31:43;;;;;;;31.50;7.90;;;;;;;14.63;43.83;99291.77;107478;1254;97839;-60
2023/02/25 09:34:13;;;;;;;21.50;7.40;;;;;;;14.75;43.58;99286.90;107515;1254;112160;-59
2023/02/25 09:36:41;;;;;;;31.20;8.80;;;;;;;14.85;42.38;99282.40;107530;1254;111233;-60
2023/02/25 09:39:11;;;;;;;30.40;8.30;;;;;;;14.93;43.13;99277.49;107486;1254;108675;-59
2023/02/25 09:41:40;;;;;;;30.00;7.40;;;;;;;15.06;42.20;99277.13;107485;1254;97918;-61
2023/02/25 09:44:35;;;;;;;34.00;7.80;;;;;;;15.15;43.00;99266.70;107483;1254;97716;-60
2023/02/25 09:47:20;;;;;;;34.20;7.50;;;;;;;15.29;43.82;99260.91;107461;1254;111401;-60
2023/02/25 09:50:12;;;;;;;22.30;7.10;;;;;;;15.45;42.51;99264.38;107576;1256;110362;-59
2023/02/25 09:52:44;;;;;;;32.20;7.40;;;;;;;15.59;41.56;99255.10;106931;1254;825064;-60
2023/02/25 09:55:29;;;;;;;24.90;8.00;;;;;;;15.67;41.30;99256.39;107585;1254;97803;-63
2023/02/25 09:58:22;;;;;;;33.50;7.40;;;;;;;15.76;40.17;99250.65;107594;1254;97796;-61
2023/02/25 10:01:03;;;;;;;29.50;7.70;;;;;;;15.83;39.72;99245.95;107618;1254;111487;-61
2023/02/25 10:03:44;;;;;;;30.80;8.60;;;;;;;15.92;40.94;99240.64;107600;1254;109741;-60
2023/02/25 10:06:49;;;;;;;31.00;7.50;;;;;;;16.06;39.57;99242.02;107572;1254;108307;-61
2023/02/25 10:09:30;;;;;;;24.10;7.40;;;;;;;16.17;39.38;99231.17;107428;1257;97774;-59
2023/02/25 10:12:12;;;;;;;26.20;8.20;;;;;;;16.28;39.94;99219.61;107598;1253;97749;-59
2023/02/25 10:15:04;;;;;;;39.00;14.20;;;;;;;16.43;41.46;99219.19;107626;1254;111349;-59
2023/02/25 10:17:49;;;;;;;37.30;15.00;;;;;;;16.38;41.78;99216.98;107478;1254;110026;-60
2023/02/25 10:20:37;;;;;;;37.80;15.10;;;;;;;16.33;42.34;99203.39;107547;1255;108722;-60
2023/02/25 10:23:26;;;;;;;36.90;15.10;;;;;;;16.35;42.85;99194.63;107556;1253;97729;-60
2023/02/25 10:25:57;;;;;;;35.00;16.80;;;;;;;16.37;42.99;99188.32;107455;1254;97849;-60
2023/02/25 10:28:28;;;;;;;39.00;16.90;;;;;;;16.62;43.38;99187.09;107604;1254;111886;-60
2023/02/25 10:31:06;;;;;;;44.90;17.30;;;;;;;16.83;42.91;99175.45;107578;1254;109219;-60
2023/02/25 10:33:39;;;;;;;47.60;17.40;;;;;;;17.09;42.79;99171.48;107627;1254;108304;-62
2023/02/25 10:36:20;;;;;;;38.90;16.90;;;;;;;17.26;42.54;99152.78;107536;1254;97843;-60
2023/02/25 10:38:51;;;;;;;32.40;9.40;;;;;;;17.50;40.33;99155.39;107593;1254;97809;-60
2023/02/25 10:41:23;;;;;;;38.30;7.30;;;;;;;17.75;35.54;99164.17;107645;1253;111691;-60
2023/02/25 10:43:54;;;;;;;31.60;8.00;;;;;;;17.89;34.93;99146.52;107620;1254;109428;-61
2023/02/25 10:46:37;;;;;;;28.80;7.20;;;;;;;18.11;34.44;99146.58;107612;1253;108876;-61
2023/02/25 10:49:21;;;;;;;27.60;7.40;;;;;;;18.22;33.74;99141.15;107591;1254;97827;-60
2023/02/25 10:52:13;;;;;;;33.30;6.90;;;;;;;18.20;32.81;99131.84;107607;1254;97861;-60
2023/02/25 10:54:50;;;;;;;30.00;8.30;;;;;;;18.19;32.83;99117.48;107612;1253;111719;-59
2023/02/25 10:57:26;;;;;;;41.30;8.30;;;;;;;18.47;32.89;99119.37;107567;1254;110131;-61
2023/02/25 11:00:20;;;;;;;36.70;7.30;;;;;;;18.67;32.38;99105.83;107543;1254;108182;-61
2023/02/25 11:02:50;;;;;;;33.20;8.40;;;;;;;18.90;31.51;99104.21;107598;1254;97812;-59
2023/02/25 11:05:48;;;;;;;33.90;7.60;;;;;;;19.28;30.80;99106.84;107606;1254;97725;-60
2023/02/25 11:08:30;;;;;;;29.80;7.40;;;;;;;19.40;30.30;99091.48;107473;1254;113464;-59
2023/02/25 11:11:05;;;;;;;42.10;9.40;;;;;;;18.94;30.63;99099.09;107577;1253;110113;-61
2023/02/25 11:13:35;;;;;;;30.20;8.00;;;;;;;18.50;31.36;99090.39;107565;1254;107422;-61
2023/02/25 11:16:12;;;;;;;45.70;7.90;;;;;;;18.29;31.74;99092.08;107589;1253;97899;-60
2023/02/25 11:18:41;;;;;;;28.80;8.80;;;;;;;18.26;32.10;99078.25;107605;1254;97801;-60
2023/02/25 11:21:13;;;;;;;34.60;7.70;;;;;;;18.24;32.03;99070.23;107591;1254;112047;-60
2023/02/25 11:23:41;;;;;;;28.10;7.20;;;;;;;18.06;32.00;99067.14;107561;1254;110388;-61
2023/02/25 11:26:29;;;;;;;37.50;7.50;;;;;;;17.83;32.46;99064.27;107618;1253;108067;-61
2023/02/25 11:29:17;;;;;;;37.90;8.00;;;;;;;17.57;32.82;99067.77;107578;1253;97756;-59
2023/02/25 11:32:00;;;;;;;32.20;7.60;;;;;;;17.43;33.12;99064.83;107590;1256;97804;-59
2023/02/25 11:34:30;;;;;;;37.90;7.80;;;;;;;17.57;33.10;99058.16;107558;1254;112093;-59
2023/02/25 11:37:30;;;;;;;43.60;9.10;;;;;;;17.86;33.56;99049.52;107623;1254;108960;-59
2023/02/25 11:39:58;;;;;;;36.40;8.50;;;;;;;18.21;33.05;99060.05;107473;1254;108769;-60